sensor_id;sensor_type;location;lat;lon;timestamp;temperature;humidity
43697;DHT22;29301;47.620;19.560;2023-08-08T00:01:54;14.80;88.80
43697;DHT22;29301;47.620;19.560;2023-08-08T00:04:19;14.80;88.50
43697;DHT22;29301;47.620;19.560;2023-08-08T00:06:45;14.90;88.70
43697;DHT22;29301;47.620;19.560;2023-08-08T00:09:11;14.90;88.70
43697;DHT22;29301;47.620;19.560;2023-08-08T00:11:36;14.90;88.40
43697;DHT22;29301;47.620;19.560;2023-08-08T00:14:02;14.90;88.50
43697;DHT22;29301;47.620;19.560;2023-08-08T00:16:28;14.80;88.70
43697;DHT22;29301;47.620;19.560;2023-08-08T00:18:53;14.80;88.90
43697;DHT22;29301;47.620;19.560;2023-08-08T00:21:22;14.80;88.50
43697;DHT22;29301;47.620;19.560;2023-08-08T00:23:47;14.80;88.30
43697;DHT22;29301;47.620;19.560;2023-08-08T00:26:13;14.80;88.10
43697;DHT22;29301;47.620;19.560;2023-08-08T00:28:39;14.80;88.00
43697;DHT22;29301;47.620;19.560;2023-08-08T00:31:05;14.80;87.80
43697;DHT22;29301;47.620;19.560;2023-08-08T00:33:30;14.80;88.20
43697;DHT22;29301;47.620;19.560;2023-08-08T00:35:56;14.70;88.10
43697;DHT22;29301;47.620;19.560;2023-08-08T00:38:22;14.70;88.40
43697;DHT22;29301;47.620;19.560;2023-08-08T00:40:47;14.70;88.00
43697;DHT22;29301;47.620;19.560;2023-08-08T00:43:13;14.70;88.00
43697;DHT22;29301;47.620;19.560;2023-08-08T00:45:42;14.70;88.00
43697;DHT22;29301;47.620;19.560;2023-08-08T00:48:08;14.70;88.10
43697;DHT22;29301;47.620;19.560;2023-08-08T00:50:35;14.70;88.10
43697;DHT22;29301;47.620;19.560;2023-08-08T00:53:02;14.80;88.00
43697;DHT22;29301;47.620;19.560;2023-08-08T00:55:28;14.70;87.70
43697;DHT22;29301;47.620;19.560;2023-08-08T00:57:53;14.70;87.50
43697;DHT22;29301;47.620;19.560;2023-08-08T01:00:19;14.80;86.90
43697;DHT22;29301;47.620;19.560;2023-08-08T01:02:45;14.70;86.70
43697;DHT22;29301;47.620;19.560;2023-08-08T01:05:11;14.80;86.60
43697;DHT22;29301;47.620;19.560;2023-08-08T01:07:45;14.80;86.30
43697;DHT22;29301;47.620;19.560;2023-08-08T01:10:15;14.80;86.30
43697;DHT22;29301;47.620;19.560;2023-08-08T01:12:50;14.80;86.40
43697;DHT22;29301;47.620;19.560;2023-08-08T01:15:17;14.80;85.90
43697;DHT22;29301;47.620;19.560;2023-08-08T01:17:44;14.80;86.20
43697;DHT22;29301;47.620;19.560;2023-08-08T01:20:12;14.80;85.90
43697;DHT22;29301;47.620;19.560;2023-08-08T01:23:03;14.80;85.90
43697;DHT22;29301;47.620;19.560;2023-08-08T01:25:34;14.70;86.20
43697;DHT22;29301;47.620;19.560;2023-08-08T01:28:00;14.80;86.50
43697;DHT22;29301;47.620;19.560;2023-08-08T01:30:26;14.80;86.50
43697;DHT22;29301;47.620;19.560;2023-08-08T01:32:52;14.80;86.30
43697;DHT22;29301;47.620;19.560;2023-08-08T01:35:18;14.80;86.10
43697;DHT22;29301;47.620;19.560;2023-08-08T01:37:51;14.80;86.00
43697;DHT22;29301;47.620;19.560;2023-08-08T01:40:18;14.80;86.10
43697;DHT22;29301;47.620;19.560;2023-08-08T01:42:47;14.80;86.30
43697;DHT22;29301;47.620;19.560;2023-08-08T01:45:14;14.80;86.20
43697;DHT22;29301;47.620;19.560;2023-08-08T01:47:40;14.80;86.50
43697;DHT22;29301;47.620;19.560;2023-08-08T01:50:07;14.80;86.50
43697;DHT22;29301;47.620;19.560;2023-08-08T01:52:34;14.80;87.30
43697;DHT22;29301;47.620;19.560;2023-08-08T01:55:00;14.70;87.50
43697;DHT22;29301;47.620;19.560;2023-08-08T01:57:26;14.70;87.30
43697;DHT22;29301;47.620;19.560;2023-08-08T01:59:52;14.80;87.20
43697;DHT22;29301;47.620;19.560;2023-08-08T02:02:17;14.80;87.10
43697;DHT22;29301;47.620;19.560;2023-08-08T02:04:43;14.80;87.10
43697;DHT22;29301;47.620;19.560;2023-08-08T02:07:09;14.80;87.10
43697;DHT22;29301;47.620;19.560;2023-08-08T02:09:35;14.70;87.20
43697;DHT22;29301;47.620;19.560;2023-08-08T02:12:00;14.70;87.60
43697;DHT22;29301;47.620;19.560;2023-08-08T02:14:26;14.70;87.80
43697;DHT22;29301;47.620;19.560;2023-08-08T02:16:52;14.70;87.70
43697;DHT22;29301;47.620;19.560;2023-08-08T02:19:17;14.70;87.50
43697;DHT22;29301;47.620;19.560;2023-08-08T02:21:43;14.70;87.10
43697;DHT22;29301;47.620;19.560;2023-08-08T02:24:08;14.60;87.20
43697;DHT22;29301;47.620;19.560;2023-08-08T02:26:34;14.60;87.60
43697;DHT22;29301;47.620;19.560;2023-08-08T02:29:00;14.60;87.90
43697;DHT22;29301;47.620;19.560;2023-08-08T02:31:25;14.50;88.00
43697;DHT22;29301;47.620;19.560;2023-08-08T02:33:51;14.50;87.90
43697;DHT22;29301;47.620;19.560;2023-08-08T02:36:17;14.50;88.00
43697;DHT22;29301;47.620;19.560;2023-08-08T02:38:44;14.50;87.80
43697;DHT22;29301;47.620;19.560;2023-08-08T02:41:10;14.50;88.00
43697;DHT22;29301;47.620;19.560;2023-08-08T02:43:35;14.50;88.10
43697;DHT22;29301;47.620;19.560;2023-08-08T02:46:01;14.60;87.70
43697;DHT22;29301;47.620;19.560;2023-08-08T02:48:28;14.60;87.30
43697;DHT22;29301;47.620;19.560;2023-08-08T02:50:54;14.60;86.90
43697;DHT22;29301;47.620;19.560;2023-08-08T02:53:19;14.60;86.40
43697;DHT22;29301;47.620;19.560;2023-08-08T02:55:45;14.60;86.00
43697;DHT22;29301;47.620;19.560;2023-08-08T02:58:11;14.60;86.10
43697;DHT22;29301;47.620;19.560;2023-08-08T03:00:37;14.60;86.40
43697;DHT22;29301;47.620;19.560;2023-08-08T03:03:03;14.60;85.90
43697;DHT22;29301;47.620;19.560;2023-08-08T03:05:29;14.60;85.50
43697;DHT22;29301;47.620;19.560;2023-08-08T03:07:54;14.50;85.30
43697;DHT22;29301;47.620;19.560;2023-08-08T03:10:20;14.60;85.50
43697;DHT22;29301;47.620;19.560;2023-08-08T03:12:46;14.50;85.40
43697;DHT22;29301;47.620;19.560;2023-08-08T03:15:11;14.50;85.70
43697;DHT22;29301;47.620;19.560;2023-08-08T03:17:37;14.50;85.90
43697;DHT22;29301;47.620;19.560;2023-08-08T03:20:03;14.60;86.40
43697;DHT22;29301;47.620;19.560;2023-08-08T03:22:31;14.60;86.20
43697;DHT22;29301;47.620;19.560;2023-08-08T03:24:57;14.70;85.40
43697;DHT22;29301;47.620;19.560;2023-08-08T03:27:24;14.70;85.00
43697;DHT22;29301;47.620;19.560;2023-08-08T03:29:50;14.70;85.10
43697;DHT22;29301;47.620;19.560;2023-08-08T03:32:16;14.70;84.70
43697;DHT22;29301;47.620;19.560;2023-08-08T03:34:41;14.60;85.00
43697;DHT22;29301;47.620;19.560;2023-08-08T03:37:07;14.60;84.30
43697;DHT22;29301;47.620;19.560;2023-08-08T03:39:33;14.50;84.80
43697;DHT22;29301;47.620;19.560;2023-08-08T03:41:58;14.40;85.90
43697;DHT22;29301;47.620;19.560;2023-08-08T03:44:24;14.40;86.60
43697;DHT22;29301;47.620;19.560;2023-08-08T03:46:50;14.30;87.00
43697;DHT22;29301;47.620;19.560;2023-08-08T03:49:16;14.30;87.80
43697;DHT22;29301;47.620;19.560;2023-08-08T03:51:42;14.30;88.10
43697;DHT22;29301;47.620;19.560;2023-08-08T03:54:07;14.30;88.40
43697;DHT22;29301;47.620;19.560;2023-08-08T03:56:33;14.30;88.20
43697;DHT22;29301;47.620;19.560;2023-08-08T03:58:59;14.30;88.20
43697;DHT22;29301;47.620;19.560;2023-08-08T04:01:25;14.40;87.80
43697;DHT22;29301;47.620;19.560;2023-08-08T04:03:50;14.40;87.80
43697;DHT22;29301;47.620;19.560;2023-08-08T04:06:16;14.30;88.40
43697;DHT22;29301;47.620;19.560;2023-08-08T04:08:42;14.30;88.70
43697;DHT22;29301;47.620;19.560;2023-08-08T04:11:07;14.20;89.00
43697;DHT22;29301;47.620;19.560;2023-08-08T04:13:33;14.20;89.30
43697;DHT22;29301;47.620;19.560;2023-08-08T04:16:00;14.20;89.60
43697;DHT22;29301;47.620;19.560;2023-08-08T04:18:25;14.20;90.00
43697;DHT22;29301;47.620;19.560;2023-08-08T04:20:51;14.20;90.10
43697;DHT22;29301;47.620;19.560;2023-08-08T04:23:17;14.20;90.30
43697;DHT22;29301;47.620;19.560;2023-08-08T04:25:42;14.10;90.40
43697;DHT22;29301;47.620;19.560;2023-08-08T04:28:08;14.10;90.70
43697;DHT22;29301;47.620;19.560;2023-08-08T04:30:33;14.20;90.70
43697;DHT22;29301;47.620;19.560;2023-08-08T04:33:00;14.20;90.60
43697;DHT22;29301;47.620;19.560;2023-08-08T04:35:26;14.20;90.70
43697;DHT22;29301;47.620;19.560;2023-08-08T04:37:52;14.20;90.70
43697;DHT22;29301;47.620;19.560;2023-08-08T04:40:17;14.20;90.80
43697;DHT22;29301;47.620;19.560;2023-08-08T04:42:43;14.20;90.80
43697;DHT22;29301;47.620;19.560;2023-08-08T04:45:09;14.20;90.90
43697;DHT22;29301;47.620;19.560;2023-08-08T04:47:35;14.20;91.10
43697;DHT22;29301;47.620;19.560;2023-08-08T04:50:00;14.10;91.20
43697;DHT22;29301;47.620;19.560;2023-08-08T04:52:26;14.20;91.40
43697;DHT22;29301;47.620;19.560;2023-08-08T04:54:52;14.20;91.30
43697;DHT22;29301;47.620;19.560;2023-08-08T04:57:17;14.20;91.40
43697;DHT22;29301;47.620;19.560;2023-08-08T04:59:43;14.20;91.30
43697;DHT22;29301;47.620;19.560;2023-08-08T05:02:08;14.20;91.30
43697;DHT22;29301;47.620;19.560;2023-08-08T05:04:34;14.20;91.60
43697;DHT22;29301;47.620;19.560;2023-08-08T05:07:00;14.30;91.60
43697;DHT22;29301;47.620;19.560;2023-08-08T05:09:25;14.30;91.50
43697;DHT22;29301;47.620;19.560;2023-08-08T05:11:54;14.30;91.50
43697;DHT22;29301;47.620;19.560;2023-08-08T05:14:19;14.40;91.40
43697;DHT22;29301;47.620;19.560;2023-08-08T05:16:45;14.40;91.20
43697;DHT22;29301;47.620;19.560;2023-08-08T05:19:12;14.40;91.60
43697;DHT22;29301;47.620;19.560;2023-08-08T05:21:37;14.40;91.50
43697;DHT22;29301;47.620;19.560;2023-08-08T05:24:03;14.50;91.40
43697;DHT22;29301;47.620;19.560;2023-08-08T05:26:29;14.50;91.10
43697;DHT22;29301;47.620;19.560;2023-08-08T05:28:55;14.60;91.10
43697;DHT22;29301;47.620;19.560;2023-08-08T05:31:20;14.70;90.90
43697;DHT22;29301;47.620;19.560;2023-08-08T05:33:48;14.80;90.80
43697;DHT22;29301;47.620;19.560;2023-08-08T05:36:14;14.80;90.30
43697;DHT22;29301;47.620;19.560;2023-08-08T05:38:39;14.80;90.10
43697;DHT22;29301;47.620;19.560;2023-08-08T05:41:06;14.90;89.40
43697;DHT22;29301;47.620;19.560;2023-08-08T05:43:32;14.90;89.20
43697;DHT22;29301;47.620;19.560;2023-08-08T05:45:58;15.00;88.80
43697;DHT22;29301;47.620;19.560;2023-08-08T05:48:24;15.10;88.20
43697;DHT22;29301;47.620;19.560;2023-08-08T05:50:50;15.10;87.90
43697;DHT22;29301;47.620;19.560;2023-08-08T05:53:15;15.20;87.60
43697;DHT22;29301;47.620;19.560;2023-08-08T05:55:41;15.30;86.90
43697;DHT22;29301;47.620;19.560;2023-08-08T05:58:10;15.30;85.60
43697;DHT22;29301;47.620;19.560;2023-08-08T06:00:36;15.40;85.70
43697;DHT22;29301;47.620;19.560;2023-08-08T06:03:01;15.40;85.50
43697;DHT22;29301;47.620;19.560;2023-08-08T06:05:27;15.50;83.50
43697;DHT22;29301;47.620;19.560;2023-08-08T06:07:54;15.60;83.00
43697;DHT22;29301;47.620;19.560;2023-08-08T06:10:21;15.70;83.40
43697;DHT22;29301;47.620;19.560;2023-08-08T06:12:47;15.70;81.90
43697;DHT22;29301;47.620;19.560;2023-08-08T06:15:12;15.80;81.90
43697;DHT22;29301;47.620;19.560;2023-08-08T06:17:38;15.90;82.50
43697;DHT22;29301;47.620;19.560;2023-08-08T06:20:05;16.00;81.70
43697;DHT22;29301;47.620;19.560;2023-08-08T06:22:32;16.10;81.90
43697;DHT22;29301;47.620;19.560;2023-08-08T06:24:57;16.20;80.70
43697;DHT22;29301;47.620;19.560;2023-08-08T06:27:23;16.30;79.10
43697;DHT22;29301;47.620;19.560;2023-08-08T06:29:49;16.40;78.20
43697;DHT22;29301;47.620;19.560;2023-08-08T06:32:14;16.40;76.30
43697;DHT22;29301;47.620;19.560;2023-08-08T06:34:40;16.50;77.00
43697;DHT22;29301;47.620;19.560;2023-08-08T06:37:06;16.60;74.90
43697;DHT22;29301;47.620;19.560;2023-08-08T06:39:31;16.70;74.40
43697;DHT22;29301;47.620;19.560;2023-08-08T06:41:57;16.80;74.00
43697;DHT22;29301;47.620;19.560;2023-08-08T06:44:23;16.90;74.00
43697;DHT22;29301;47.620;19.560;2023-08-08T06:46:49;17.10;71.80
43697;DHT22;29301;47.620;19.560;2023-08-08T06:49:14;17.20;70.20
43697;DHT22;29301;47.620;19.560;2023-08-08T06:51:40;17.40;69.90
43697;DHT22;29301;47.620;19.560;2023-08-08T06:54:05;17.50;68.70
43697;DHT22;29301;47.620;19.560;2023-08-08T06:56:33;17.60;66.60
43697;DHT22;29301;47.620;19.560;2023-08-08T06:58:58;17.70;66.30
43697;DHT22;29301;47.620;19.560;2023-08-08T07:01:24;17.90;65.90
43697;DHT22;29301;47.620;19.560;2023-08-08T07:03:50;18.00;64.90
43697;DHT22;29301;47.620;19.560;2023-08-08T07:06:17;18.20;65.50
43697;DHT22;29301;47.620;19.560;2023-08-08T07:08:43;18.40;65.10
43697;DHT22;29301;47.620;19.560;2023-08-08T07:11:09;18.50;63.70
43697;DHT22;29301;47.620;19.560;2023-08-08T07:13:34;18.70;61.70
43697;DHT22;29301;47.620;19.560;2023-08-08T07:16:00;18.80;60.80
43697;DHT22;29301;47.620;19.560;2023-08-08T07:18:26;19.00;60.40
43697;DHT22;29301;47.620;19.560;2023-08-08T07:20:52;19.10;59.30
43697;DHT22;29301;47.620;19.560;2023-08-08T07:23:18;19.30;59.50
43697;DHT22;29301;47.620;19.560;2023-08-08T07:25:45;19.50;59.00
43697;DHT22;29301;47.620;19.560;2023-08-08T07:28:10;19.70;59.10
43697;DHT22;29301;47.620;19.560;2023-08-08T07:30:36;19.90;57.30
43697;DHT22;29301;47.620;19.560;2023-08-08T07:33:02;20.00;56.00
43697;DHT22;29301;47.620;19.560;2023-08-08T07:35:28;20.10;54.80
43697;DHT22;29301;47.620;19.560;2023-08-08T07:37:53;20.20;55.30
43697;DHT22;29301;47.620;19.560;2023-08-08T07:40:20;20.30;54.30
43697;DHT22;29301;47.620;19.560;2023-08-08T07:42:47;20.20;53.40
43697;DHT22;29301;47.620;19.560;2023-08-08T07:45:13;20.20;53.90
43697;DHT22;29301;47.620;19.560;2023-08-08T07:47:39;20.20;53.00
43697;DHT22;29301;47.620;19.560;2023-08-08T07:50:06;20.40;53.80
43697;DHT22;29301;47.620;19.560;2023-08-08T07:52:34;20.80;54.00
43697;DHT22;29301;47.620;19.560;2023-08-08T07:55:00;21.00;53.10
43697;DHT22;29301;47.620;19.560;2023-08-08T07:57:27;21.10;50.30
43697;DHT22;29301;47.620;19.560;2023-08-08T07:59:52;21.20;50.10
43697;DHT22;29301;47.620;19.560;2023-08-08T08:02:18;21.40;48.40
43697;DHT22;29301;47.620;19.560;2023-08-08T08:04:43;21.50;47.70
43697;DHT22;29301;47.620;19.560;2023-08-08T08:07:09;21.30;47.90
43697;DHT22;29301;47.620;19.560;2023-08-08T08:09:35;21.40;46.60
43697;DHT22;29301;47.620;19.560;2023-08-08T08:12:00;21.50;45.60
43697;DHT22;29301;47.620;19.560;2023-08-08T08:14:26;21.50;45.20
43697;DHT22;29301;47.620;19.560;2023-08-08T08:16:52;21.60;44.70
43697;DHT22;29301;47.620;19.560;2023-08-08T08:19:18;21.80;44.60
43697;DHT22;29301;47.620;19.560;2023-08-08T08:21:44;21.80;43.60
43697;DHT22;29301;47.620;19.560;2023-08-08T08:24:09;21.90;41.80
43697;DHT22;29301;47.620;19.560;2023-08-08T08:26:35;22.00;42.90
43697;DHT22;29301;47.620;19.560;2023-08-08T08:29:01;22.00;43.70
43697;DHT22;29301;47.620;19.560;2023-08-08T08:31:26;22.20;43.00
43697;DHT22;29301;47.620;19.560;2023-08-08T08:33:52;22.20;42.10
43697;DHT22;29301;47.620;19.560;2023-08-08T08:36:20;22.30;41.00
43697;DHT22;29301;47.620;19.560;2023-08-08T08:38:47;22.40;42.00
43697;DHT22;29301;47.620;19.560;2023-08-08T08:41:18;22.50;42.10
43697;DHT22;29301;47.620;19.560;2023-08-08T08:43:45;22.80;41.80
43697;DHT22;29301;47.620;19.560;2023-08-08T08:46:12;23.00;40.30
43697;DHT22;29301;47.620;19.560;2023-08-08T08:48:40;23.10;40.10
43697;DHT22;29301;47.620;19.560;2023-08-08T08:51:06;23.10;39.50
43697;DHT22;29301;47.620;19.560;2023-08-08T08:53:32;23.20;40.40
43697;DHT22;29301;47.620;19.560;2023-08-08T08:56:01;23.30;39.80
43697;DHT22;29301;47.620;19.560;2023-08-08T08:58:27;23.30;40.80
43697;DHT22;29301;47.620;19.560;2023-08-08T09:00:54;23.30;38.60
43697;DHT22;29301;47.620;19.560;2023-08-08T09:03:20;23.30;38.40
43697;DHT22;29301;47.620;19.560;2023-08-08T09:05:47;23.40;38.30
43697;DHT22;29301;47.620;19.560;2023-08-08T09:08:13;23.70;38.00
43697;DHT22;29301;47.620;19.560;2023-08-08T09:10:40;23.90;35.70
43697;DHT22;29301;47.620;19.560;2023-08-08T09:13:06;23.80;36.00
43697;DHT22;29301;47.620;19.560;2023-08-08T09:15:33;23.80;35.10
43697;DHT22;29301;47.620;19.560;2023-08-08T09:18:00;23.80;34.30
43697;DHT22;29301;47.620;19.560;2023-08-08T09:20:26;23.80;35.40
43697;DHT22;29301;47.620;19.560;2023-08-08T09:22:56;23.90;35.40
43697;DHT22;29301;47.620;19.560;2023-08-08T09:25:22;24.00;35.00
43697;DHT22;29301;47.620;19.560;2023-08-08T09:27:51;24.10;34.20
43697;DHT22;29301;47.620;19.560;2023-08-08T09:30:17;24.00;34.30
43697;DHT22;29301;47.620;19.560;2023-08-08T09:32:43;24.00;34.20
43697;DHT22;29301;47.620;19.560;2023-08-08T09:35:10;24.00;34.70
43697;DHT22;29301;47.620;19.560;2023-08-08T09:37:37;24.10;34.30
43697;DHT22;29301;47.620;19.560;2023-08-08T09:40:05;24.10;32.70
43697;DHT22;29301;47.620;19.560;2023-08-08T09:42:33;24.00;32.20
43697;DHT22;29301;47.620;19.560;2023-08-08T09:44:59;23.80;31.10
43697;DHT22;29301;47.620;19.560;2023-08-08T09:47:26;23.50;31.50
43697;DHT22;29301;47.620;19.560;2023-08-08T09:50:00;23.40;32.10
43697;DHT22;29301;47.620;19.560;2023-08-08T09:52:27;23.50;31.90
43697;DHT22;29301;47.620;19.560;2023-08-08T09:54:54;23.20;32.20
43697;DHT22;29301;47.620;19.560;2023-08-08T09:57:21;23.10;32.90
43697;DHT22;29301;47.620;19.560;2023-08-08T09:59:48;23.10;32.60
43697;DHT22;29301;47.620;19.560;2023-08-08T10:02:15;23.20;34.60
43697;DHT22;29301;47.620;19.560;2023-08-08T10:04:41;23.40;33.60
43697;DHT22;29301;47.620;19.560;2023-08-08T10:07:07;23.40;33.10
43697;DHT22;29301;47.620;19.560;2023-08-08T10:09:33;23.40;33.40
43697;DHT22;29301;47.620;19.560;2023-08-08T10:11:59;23.30;32.30
43697;DHT22;29301;47.620;19.560;2023-08-08T10:14:30;23.10;33.40
43697;DHT22;29301;47.620;19.560;2023-08-08T10:16:56;23.20;33.10
43697;DHT22;29301;47.620;19.560;2023-08-08T10:19:23;23.30;31.90
43697;DHT22;29301;47.620;19.560;2023-08-08T10:21:54;23.40;33.20
43697;DHT22;29301;47.620;19.560;2023-08-08T10:24:20;23.50;33.70
43697;DHT22;29301;47.620;19.560;2023-08-08T10:29:19;23.70;32.10
43697;DHT22;29301;47.620;19.560;2023-08-08T10:31:52;23.70;31.20
43697;DHT22;29301;47.620;19.560;2023-08-08T10:34:20;23.60;30.60
43697;DHT22;29301;47.620;19.560;2023-08-08T10:36:50;23.70;30.10
43697;DHT22;29301;47.620;19.560;2023-08-08T10:39:19;23.80;30.40
43697;DHT22;29301;47.620;19.560;2023-08-08T10:41:47;23.80;30.50
43697;DHT22;29301;47.620;19.560;2023-08-08T10:44:13;23.90;30.00
43697;DHT22;29301;47.620;19.560;2023-08-08T10:46:41;23.90;29.20
43697;DHT22;29301;47.620;19.560;2023-08-08T10:49:07;24.10;28.80
43697;DHT22;29301;47.620;19.560;2023-08-08T10:51:43;24.00;28.90
43697;DHT22;29301;47.620;19.560;2023-08-08T10:56:40;24.20;29.90
43697;DHT22;29301;47.620;19.560;2023-08-08T10:59:18;24.40;29.20
43697;DHT22;29301;47.620;19.560;2023-08-08T11:01:48;24.50;29.00
43697;DHT22;29301;47.620;19.560;2023-08-08T11:04:15;24.60;28.70
43697;DHT22;29301;47.620;19.560;2023-08-08T11:06:41;24.50;29.60
43697;DHT22;29301;47.620;19.560;2023-08-08T11:09:07;24.60;30.10
43697;DHT22;29301;47.620;19.560;2023-08-08T11:11:38;24.70;29.30
43697;DHT22;29301;47.620;19.560;2023-08-08T11:14:18;24.80;29.20
43697;DHT22;29301;47.620;19.560;2023-08-08T11:16:45;24.60;29.30
43697;DHT22;29301;47.620;19.560;2023-08-08T11:19:11;24.70;29.30
43697;DHT22;29301;47.620;19.560;2023-08-08T11:21:42;24.70;28.70
43697;DHT22;29301;47.620;19.560;2023-08-08T11:24:09;24.80;28.10
43697;DHT22;29301;47.620;19.560;2023-08-08T11:26:36;24.70;27.20
43697;DHT22;29301;47.620;19.560;2023-08-08T11:29:03;24.70;28.10
43697;DHT22;29301;47.620;19.560;2023-08-08T11:31:29;24.80;26.90
43697;DHT22;29301;47.620;19.560;2023-08-08T11:33:55;24.70;26.60
43697;DHT22;29301;47.620;19.560;2023-08-08T11:36:22;24.50;27.60
43697;DHT22;29301;47.620;19.560;2023-08-08T11:38:49;24.40;26.70
43697;DHT22;29301;47.620;19.560;2023-08-08T11:41:17;24.50;27.40
43697;DHT22;29301;47.620;19.560;2023-08-08T11:43:43;24.40;27.50
43697;DHT22;29301;47.620;19.560;2023-08-08T11:46:13;24.40;27.70
43697;DHT22;29301;47.620;19.560;2023-08-08T11:48:39;24.50;28.20
43697;DHT22;29301;47.620;19.560;2023-08-08T11:51:06;24.50;27.60
43697;DHT22;29301;47.620;19.560;2023-08-08T11:53:33;24.60;27.20
43697;DHT22;29301;47.620;19.560;2023-08-08T11:56:02;24.70;26.70
43697;DHT22;29301;47.620;19.560;2023-08-08T11:58:29;24.90;26.70
43697;DHT22;29301;47.620;19.560;2023-08-08T12:00:58;25.00;26.70
43697;DHT22;29301;47.620;19.560;2023-08-08T12:03:27;25.10;26.90
43697;DHT22;29301;47.620;19.560;2023-08-08T12:05:53;25.10;25.90
43697;DHT22;29301;47.620;19.560;2023-08-08T12:08:19;25.00;25.20
43697;DHT22;29301;47.620;19.560;2023-08-08T12:10:48;24.90;25.70
43697;DHT22;29301;47.620;19.560;2023-08-08T12:13:22;24.90;26.10
43697;DHT22;29301;47.620;19.560;2023-08-08T12:15:49;24.90;25.60
43697;DHT22;29301;47.620;19.560;2023-08-08T12:18:18;24.70;26.00
43697;DHT22;29301;47.620;19.560;2023-08-08T12:20:44;24.70;26.60
43697;DHT22;29301;47.620;19.560;2023-08-08T12:23:10;24.70;26.80
43697;DHT22;29301;47.620;19.560;2023-08-08T12:25:36;24.70;26.60
43697;DHT22;29301;47.620;19.560;2023-08-08T12:28:02;24.70;27.00
43697;DHT22;29301;47.620;19.560;2023-08-08T12:30:28;24.80;26.70
43697;DHT22;29301;47.620;19.560;2023-08-08T12:32:53;24.90;26.60
43697;DHT22;29301;47.620;19.560;2023-08-08T12:35:19;24.90;26.40
43697;DHT22;29301;47.620;19.560;2023-08-08T12:37:46;24.90;26.60
43697;DHT22;29301;47.620;19.560;2023-08-08T12:40:12;24.80;26.50
43697;DHT22;29301;47.620;19.560;2023-08-08T12:42:38;24.80;26.70
43697;DHT22;29301;47.620;19.560;2023-08-08T12:45:05;24.90;26.70
43697;DHT22;29301;47.620;19.560;2023-08-08T12:47:31;25.00;26.40
43697;DHT22;29301;47.620;19.560;2023-08-08T12:49:57;25.00;25.70
43697;DHT22;29301;47.620;19.560;2023-08-08T12:52:23;25.00;25.20
43697;DHT22;29301;47.620;19.560;2023-08-08T12:54:49;25.00;24.90
43697;DHT22;29301;47.620;19.560;2023-08-08T12:57:14;25.00;25.30
43697;DHT22;29301;47.620;19.560;2023-08-08T12:59:40;24.90;24.90
43697;DHT22;29301;47.620;19.560;2023-08-08T13:02:06;24.80;24.70
43697;DHT22;29301;47.620;19.560;2023-08-08T13:04:32;24.90;25.90
43697;DHT22;29301;47.620;19.560;2023-08-08T13:06:58;24.90;24.60
43697;DHT22;29301;47.620;19.560;2023-08-08T13:09:24;24.80;25.10
43697;DHT22;29301;47.620;19.560;2023-08-08T13:11:49;24.90;25.70
43697;DHT22;29301;47.620;19.560;2023-08-08T13:14:15;24.90;24.10
43697;DHT22;29301;47.620;19.560;2023-08-08T13:16:41;25.00;24.60
43697;DHT22;29301;47.620;19.560;2023-08-08T13:19:07;25.00;24.80
43697;DHT22;29301;47.620;19.560;2023-08-08T13:21:33;25.00;25.00
43697;DHT22;29301;47.620;19.560;2023-08-08T13:23:59;25.00;24.70
43697;DHT22;29301;47.620;19.560;2023-08-08T13:26:24;24.90;24.60
43697;DHT22;29301;47.620;19.560;2023-08-08T13:28:50;24.90;24.80
43697;DHT22;29301;47.620;19.560;2023-08-08T13:31:16;24.70;25.20
43697;DHT22;29301;47.620;19.560;2023-08-08T13:33:42;24.50;25.90
43697;DHT22;29301;47.620;19.560;2023-08-08T13:36:07;24.40;26.10
43697;DHT22;29301;47.620;19.560;2023-08-08T13:38:33;24.30;26.70
43697;DHT22;29301;47.620;19.560;2023-08-08T13:41:00;24.30;27.50
43697;DHT22;29301;47.620;19.560;2023-08-08T13:43:26;24.20;27.60
43697;DHT22;29301;47.620;19.560;2023-08-08T13:45:52;24.10;27.40
43697;DHT22;29301;47.620;19.560;2023-08-08T13:48:18;24.10;28.10
43697;DHT22;29301;47.620;19.560;2023-08-08T13:50:43;24.10;28.10
43697;DHT22;29301;47.620;19.560;2023-08-08T13:53:09;24.00;28.00
43697;DHT22;29301;47.620;19.560;2023-08-08T13:55:35;24.00;28.40
43697;DHT22;29301;47.620;19.560;2023-08-08T13:58:05;23.80;28.90
43697;DHT22;29301;47.620;19.560;2023-08-08T14:00:31;23.50;28.40
43697;DHT22;29301;47.620;19.560;2023-08-08T14:02:58;23.30;29.00
43697;DHT22;29301;47.620;19.560;2023-08-08T14:05:24;23.20;29.20
43697;DHT22;29301;47.620;19.560;2023-08-08T14:07:50;23.10;29.50
43697;DHT22;29301;47.620;19.560;2023-08-08T14:10:16;23.00;29.50
43697;DHT22;29301;47.620;19.560;2023-08-08T14:12:41;22.90;29.90
43697;DHT22;29301;47.620;19.560;2023-08-08T14:15:07;22.80;30.50
43697;DHT22;29301;47.620;19.560;2023-08-08T14:17:35;22.90;31.10
43697;DHT22;29301;47.620;19.560;2023-08-08T14:20:00;22.90;31.60
43697;DHT22;29301;47.620;19.560;2023-08-08T14:22:26;22.80;32.00
43697;DHT22;29301;47.620;19.560;2023-08-08T14:24:52;22.80;33.00
43697;DHT22;29301;47.620;19.560;2023-08-08T14:27:17;22.80;33.60
43697;DHT22;29301;47.620;19.560;2023-08-08T14:29:43;22.70;33.30
43697;DHT22;29301;47.620;19.560;2023-08-08T14:32:09;22.70;32.90
43697;DHT22;29301;47.620;19.560;2023-08-08T14:34:36;22.70;32.70
43697;DHT22;29301;47.620;19.560;2023-08-08T14:37:03;22.60;33.30
43697;DHT22;29301;47.620;19.560;2023-08-08T14:39:29;22.70;33.20
43697;DHT22;29301;47.620;19.560;2023-08-08T14:41:55;22.70;33.50
43697;DHT22;29301;47.620;19.560;2023-08-08T14:44:22;22.70;33.50
43697;DHT22;29301;47.620;19.560;2023-08-08T14:46:47;22.60;33.40
43697;DHT22;29301;47.620;19.560;2023-08-08T14:49:13;22.50;33.90
43697;DHT22;29301;47.620;19.560;2023-08-08T14:51:39;22.40;34.20
43697;DHT22;29301;47.620;19.560;2023-08-08T14:54:05;22.30;34.40
43697;DHT22;29301;47.620;19.560;2023-08-08T14:56:31;22.30;35.10
43697;DHT22;29301;47.620;19.560;2023-08-08T14:58:56;22.20;35.50
43697;DHT22;29301;47.620;19.560;2023-08-08T15:01:22;22.20;35.40
43697;DHT22;29301;47.620;19.560;2023-08-08T15:03:49;22.20;35.90
43697;DHT22;29301;47.620;19.560;2023-08-08T15:06:14;22.20;35.70
43697;DHT22;29301;47.620;19.560;2023-08-08T15:08:41;22.20;35.90
43697;DHT22;29301;47.620;19.560;2023-08-08T15:11:07;22.10;35.60
43697;DHT22;29301;47.620;19.560;2023-08-08T15:13:32;22.00;35.80
43697;DHT22;29301;47.620;19.560;2023-08-08T15:15:58;22.10;35.90